Time;durP1;ratioP1;P1;durP2;ratioP2;P2;SDS_P1;SDS_P2;PMS_P1;PMS_P2;Temp;Humidity;BMP_temperature;BMP_pressure;BME280_temperature;BME280_humidity;BME280_pressure;Samples;Min_cycle;Max_cycle;Signal;HPM_P1;HPM_P2
2022/03/15 00:00:20;;;;;;;17.70;8.55;;;;;;;;;;5060958;28;20131;-72
2022/03/15 00:02:49;;;;;;;16.23;8.13;;;;;;;;;;5055584;28;20139;-72
2022/03/15 00:05:16;;;;;;;20.95;8.80;;;;;;;;;;5059150;28;20187;-73
2022/03/15 00:07:44;;;;;;;13.18;6.53;;;;;;;;;;5056906;28;20045;-73
2022/03/15 00:10:18;;;;;;;20.05;8.90;;;;;;;;;;5057395;28;20076;-73
2022/03/15 00:12:45;;;;;;;16.95;8.00;;;;;;;;;;5061230;28;20122;-73
2022/03/15 00:15:12;;;;;;;15.25;7.50;;;;;;;;;;5060979;28;20068;-73
2022/03/15 00:17:40;;;;;;;18.13;9.02;;;;;;;;;;5056599;28;20471;-73
2022/03/15 00:20:07;;;;;;;18.70;8.13;;;;;;;;;;5055155;28;20131;-73
2022/03/15 00:22:37;;;;;;;16.38;8.57;;;;;;;;;;5061976;27;20056;-73
2022/03/15 00:25:19;;;;;;;18.70;8.43;;;;;;;;;;5057307;28;20076;-73
2022/03/15 00:27:46;;;;;;;16.65;8.30;;;;;;;;;;5057842;28;20072;-73
2022/03/15 00:30:15;;;;;;;18.27;8.13;;;;;;;;;;5057907;28;20085;-73
2022/03/15 00:32:42;;;;;;;13.88;7.50;;;;;;;;;;5059018;28;20149;-73
2022/03/15 00:35:18;;;;;;;12.57;6.75;;;;;;;;;;5057872;28;20091;-73
2022/03/15 00:37:53;;;;;;;21.80;8.68;;;;;;;;;;5054611;28;20080;-73
2022/03/15 00:40:20;;;;;;;15.68;8.25;;;;;;;;;;5055053;28;20499;-73
2022/03/15 00:42:54;;;;;;;17.90;9.07;;;;;;;;;;5053249;28;20140;-73
2022/03/15 00:45:30;;;;;;;16.77;8.65;;;;;;;;;;5059144;28;20450;-73
2022/03/15 00:47:57;;;;;;;17.35;8.48;;;;;;;;;;5058695;28;20140;-73
2022/03/15 00:50:25;;;;;;;14.50;8.18;;;;;;;;;;5062892;28;20053;-73
2022/03/15 00:52:59;;;;;;;16.00;8.90;;;;;;;;;;5058144;28;20474;-72
2022/03/15 00:55:26;;;;;;;16.55;8.60;;;;;;;;;;5060208;28;20444;-73
2022/03/15 00:57:52;;;;;;;20.25;8.50;;;;;;;;;;5062024;28;20734;-73
2022/03/15 01:00:27;;;;;;;16.40;8.50;;;;;;;;;;5060476;28;20172;-73
2022/03/15 01:02:54;;;;;;;16.52;8.13;;;;;;;;;;5061657;28;20069;-73
2022/03/15 01:05:20;;;;;;;13.57;8.00;;;;;;;;;;5059304;28;20514;-73
2022/03/15 01:07:53;;;;;;;17.23;7.28;;;;;;;;;;5055502;28;20461;-73
2022/03/15 01:10:20;;;;;;;12.02;5.60;;;;;;;;;;5058217;28;20083;-73
2022/03/15 01:12:46;;;;;;;15.25;8.05;;;;;;;;;;5058882;28;20657;-73
2022/03/15 01:15:13;;;;;;;14.07;7.75;;;;;;;;;;5056854;28;20622;-73
2022/03/15 01:17:39;;;;;;;18.40;8.50;;;;;;;;;;5061068;28;20139;-76
2022/03/15 01:20:07;;;;;;;20.87;9.20;;;;;;;;;;5061239;28;20574;-75
2022/03/15 01:22:44;;;;;;;19.95;10.13;;;;;;;;;;5058657;28;20080;-76
2022/03/15 01:25:11;;;;;;;16.50;9.38;;;;;;;;;;5057565;28;20151;-76
2022/03/15 01:27:37;;;;;;;18.83;9.70;;;;;;;;;;5058215;28;20481;-75
2022/03/15 01:30:04;;;;;;;12.77;7.10;;;;;;;;;;5057640;28;20526;-75
2022/03/15 01:32:31;;;;;;;15.02;8.50;;;;;;;;;;5057700;28;20118;-75
2022/03/15 01:34:57;;;;;;;18.70;8.70;;;;;;;;;;5057815;28;20141;-75
2022/03/15 01:37:24;;;;;;;19.20;9.82;;;;;;;;;;5055683;28;20091;-76
2022/03/15 01:39:57;;;;;;;17.95;9.63;;;;;;;;;;5065940;28;20140;-76
2022/03/15 01:42:24;;;;;;;17.38;9.15;;;;;;;;;;5060991;28;20163;-76
2022/03/15 01:44:50;;;;;;;17.73;9.48;;;;;;;;;;5062835;28;20071;-76
2022/03/15 01:47:17;;;;;;;17.73;8.93;;;;;;;;;;5061954;28;20149;-76
2022/03/15 01:49:44;;;;;;;19.60;9.48;;;;;;;;;;5062760;28;20336;-74
2022/03/15 01:52:12;;;;;;;18.27;10.05;;;;;;;;;;5063179;28;20141;-74
2022/03/15 01:54:46;;;;;;;21.13;9.40;;;;;;;;;;5057311;28;20044;-74
2022/03/15 01:57:12;;;;;;;22.10;9.10;;;;;;;;;;5063460;28;20083;-74
2022/03/15 01:59:39;;;;;;;17.30;8.90;;;;;;;;;;5059405;28;20045;-74
2022/03/15 02:02:12;;;;;;;19.00;9.57;;;;;;;;;;5060403;28;20372;-74
2022/03/15 02:04:39;;;;;;;23.58;9.98;;;;;;;;;;5061616;28;20435;-75
2022/03/15 02:07:05;;;;;;;23.52;9.13;;;;;;;;;;5061240;28;20081;-74
2022/03/15 02:09:32;;;;;;;22.80;10.00;;;;;;;;;;5058431;28;20140;-74
2022/03/15 02:11:59;;;;;;;19.55;9.00;;;;;;;;;;5062290;28;20095;-74
2022/03/15 02:14:26;;;;;;;15.03;9.40;;;;;;;;;;5060805;28;20098;-74
2022/03/15 02:16:59;;;;;;;17.35;9.43;;;;;;;;;;5061093;28;20095;-74
2022/03/15 02:19:27;;;;;;;14.07;7.10;;;;;;;;;;5065570;28;20044;-74
2022/03/15 02:21:57;;;;;;;16.42;8.52;;;;;;;;;;5061883;28;20343;-74
2022/03/15 02:24:26;;;;;;;20.88;9.73;;;;;;;;;;5042214;28;20083;-75
2022/03/15 02:26:53;;;;;;;18.90;9.90;;;;;;;;;;5020130;28;20497;-75
2022/03/15 02:29:20;;;;;;;18.33;8.07;;;;;;;;;;5037916;28;20092;-75
2022/03/15 02:31:48;;;;;;;16.83;8.23;;;;;;;;;;5038587;28;20049;-74
2022/03/15 02:34:16;;;;;;;17.63;9.40;;;;;;;;;;5040138;28;20163;-74
2022/03/15 02:36:44;;;;;;;17.33;9.00;;;;;;;;;;5038389;28;20080;-74
2022/03/15 02:39:11;;;;;;;14.15;7.80;;;;;;;;;;5040496;28;20605;-74
2022/03/15 02:41:38;;;;;;;17.55;9.60;;;;;;;;;;5038545;28;20511;-75
2022/03/15 02:44:04;;;;;;;21.58;9.98;;;;;;;;;;5037683;28;20103;-75
2022/03/15 02:46:32;;;;;;;16.48;7.80;;;;;;;;;;5036973;28;20175;-75
2022/03/15 02:48:58;;;;;;;15.98;8.48;;;;;;;;;;5041359;28;20084;-75
2022/03/15 02:51:25;;;;;;;21.73;9.27;;;;;;;;;;5037319;28;20054;-75
2022/03/15 02:53:54;;;;;;;19.73;10.15;;;;;;;;;;5038818;28;20399;-75
2022/03/15 02:56:21;;;;;;;21.13;9.95;;;;;;;;;;5041821;28;20092;-74
2022/03/15 02:58:48;;;;;;;19.50;8.43;;;;;;;;;;5039259;28;20136;-74
2022/03/15 03:01:15;;;;;;;19.15;9.48;;;;;;;;;;5040130;28;20082;-75
2022/03/15 03:03:42;;;;;;;;;;;;;;;;;;5040300;28;20056;-74
2022/03/15 03:06:08;;;;;;;18.37;9.73;;;;;;;;;;5039639;28;19968;-75
2022/03/15 03:08:42;;;;;;;21.13;10.52;;;;;;;;;;5039463;28;20084;-75
2022/03/15 03:11:08;;;;;;;23.55;11.15;;;;;;;;;;5041870;28;20115;-74
2022/03/15 03:13:37;;;;;;;23.10;10.27;;;;;;;;;;5040134;28;20207;-74
2022/03/15 03:16:12;;;;;;;22.25;11.27;;;;;;;;;;5042675;28;20053;-74
2022/03/15 03:18:40;;;;;;;17.90;10.00;;;;;;;;;;5043163;28;20152;-74
2022/03/15 03:21:07;;;;;;;18.92;10.15;;;;;;;;;;5024869;28;20080;-75
2022/03/15 03:23:41;;;;;;;21.75;10.10;;;;;;;;;;5039177;28;20140;-74
2022/03/15 03:26:07;;;;;;;15.32;7.70;;;;;;;;;;5035682;28;20076;-75
2022/03/15 03:28:37;;;;;;;14.43;7.60;;;;;;;;;;5041498;28;20135;-75
2022/03/15 03:31:04;;;;;;;21.85;9.63;;;;;;;;;;5042583;28;20049;-74
2022/03/15 03:33:31;;;;;;;21.70;9.10;;;;;;;;;;5041276;28;20049;-74
2022/03/15 03:35:57;;;;;;;12.83;6.83;;;;;;;;;;5036565;28;20610;-74
2022/03/15 03:38:25;;;;;;;20.40;9.90;;;;;;;;;;5041136;28;20136;-74
2022/03/15 03:40:52;;;;;;;21.60;8.57;;;;;;;;;;5042673;28;20045;-74
2022/03/15 03:43:18;;;;;;;22.05;10.00;;;;;;;;;;5041937;28;20081;-74
2022/03/15 03:45:51;;;;;;;20.50;9.95;;;;;;;;;;5037280;28;20080;-74
2022/03/15 03:48:19;;;;;;;20.38;10.25;;;;;;;;;;5038658;28;20073;-74
2022/03/15 03:50:45;;;;;;;21.20;9.73;;;;;;;;;;5037178;28;20144;-74
2022/03/15 03:53:16;;;;;;;25.80;10.77;;;;;;;;;;5037485;28;20139;-75
2022/03/15 03:55:42;;;;;;;22.20;11.40;;;;;;;;;;5043031;28;20046;-74
2022/03/15 03:58:09;;;;;;;21.10;10.63;;;;;;;;;;5040292;28;20159;-74
2022/03/15 04:00:42;;;;;;;27.93;10.63;;;;;;;;;;5039348;28;20084;-74
2022/03/15 04:03:13;;;;;;;16.38;7.75;;;;;;;;;;5041724;28;20055;-74
2022/03/15 04:05:39;;;;;;;25.85;11.40;;;;;;;;;;5041312;28;20045;-75
2022/03/15 04:08:12;;;;;;;23.75;10.80;;;;;;;;;;5045132;28;20472;-75
2022/03/15 04:10:39;;;;;;;21.20;10.80;;;;;;;;;;5040160;28;20132;-75
2022/03/15 04:13:07;;;;;;;25.17;11.77;;;;;;;;;;5037545;28;20136;-74
2022/03/15 04:15:40;;;;;;;24.83;11.68;;;;;;;;;;5042275;28;20124;-74
2022/03/15 04:18:07;;;;;;;24.00;10.03;;;;;;;;;;5029791;28;20075;-74
2022/03/15 04:20:33;;;;;;;18.70;9.07;;;;;;;;;;5029426;28;20095;-75
2022/03/15 04:23:06;;;;;;;23.15;10.35;;;;;;;;;;5043275;28;20135;-74
2022/03/15 04:25:33;;;;;;;17.08;8.55;;;;;;;;;;5059644;28;20136;-74
2022/03/15 04:28:00;;;;;;;22.10;8.10;;;;;;;;;;5058853;28;20098;-74
2022/03/15 04:30:27;;;;;;;;;;;;;;;;;;5060845;28;20079;-74
2022/03/15 04:32:53;;;;;;;26.90;10.20;;;;;;;;;;5058336;28;20019;-74
2022/03/15 04:35:20;;;;;;;17.70;9.17;;;;;;;;;;5056925;28;20163;-74
2022/03/15 04:37:54;;;;;;;25.00;10.87;;;;;;;;;;5057149;28;20136;-75
2022/03/15 04:40:21;;;;;;;24.50;10.07;;;;;;;;;;5060273;28;20041;-74
2022/03/15 04:42:52;;;;;;;22.57;10.27;;;;;;;;;;5061710;28;20095;-76
2022/03/15 04:45:19;;;;;;;22.43;10.40;;;;;;;;;;5058346;28;20167;-76
2022/03/15 04:47:46;;;;;;;19.17;10.35;;;;;;;;;;5060000;28;20104;-76
2022/03/15 04:50:12;;;;;;;17.23;9.60;;;;;;;;;;5059099;28;20143;-79
2022/03/15 04:52:45;;;;;;;21.80;10.43;;;;;;;;;;5056307;28;20535;-76
2022/03/15 04:55:12;;;;;;;20.52;10.60;;;;;;;;;;5058869;28;20075;-77
2022/03/15 04:57:38;;;;;;;27.50;11.17;;;;;;;;;;5061190;28;20048;-77
2022/03/15 05:00:11;;;;;;;23.27;11.53;;;;;;;;;;5062278;28;20087;-77
2022/03/15 05:02:41;;;;;;;23.73;11.23;;;;;;;;;;5055491;28;20045;-76
2022/03/15 05:05:08;;;;;;;26.27;11.43;;;;;;;;;;5057769;28;20862;-76
2022/03/15 05:07:41;;;;;;;19.93;10.93;;;;;;;;;;5056387;28;20140;-76
2022/03/15 05:13:03;;;;;;;23.90;11.60;;;;;;;;;;5055458;28;20127;-76
2022/03/15 05:15:30;;;;;;;21.63;12.17;;;;;;;;;;5059320;28;20064;-76
2022/03/15 05:17:57;;;;;;;19.45;9.23;;;;;;;;;;5068771;28;20649;-76
2022/03/15 05:20:25;;;;;;;25.10;12.30;;;;;;;;;;5062929;28;20076;-77
2022/03/15 05:22:52;;;;;;;28.95;12.02;;;;;;;;;;5061244;28;20147;-76
2022/03/15 05:25:18;;;;;;;28.10;12.20;;;;;;;;;;5064321;28;20072;-75
2022/03/15 05:27:45;;;;;;;27.08;12.07;;;;;;;;;;5059978;28;20071;-76
2022/03/15 05:30:12;;;;;;;17.40;8.67;;;;;;;;;;5064728;28;20131;-77
2022/03/15 05:32:39;;;;;;;;;;;;;;;;;;5059390;28;20140;-76
2022/03/15 05:35:12;;;;;;;23.77;10.43;;;;;;;;;;5060716;28;19966;-76
2022/03/15 05:37:39;;;;;;;23.33;9.95;;;;;;;;;;5063283;28;20139;-77
2022/03/15 05:40:06;;;;;;;22.67;10.73;;;;;;;;;;5062524;28;20041;-75
2022/03/15 05:42:32;;;;;;;22.20;11.82;;;;;;;;;;5061359;28;20129;-76
2022/03/15 05:44:59;;;;;;;25.07;11.37;;;;;;;;;;5061116;28;20080;-75
2022/03/15 05:47:25;;;;;;;17.40;9.30;;;;;;;;;;5062226;28;20496;-76
2022/03/15 05:49:58;;;;;;;24.90;11.10;;;;;;;;;;5059732;28;20797;-76
2022/03/15 05:52:25;;;;;;;15.27;8.70;;;;;;;;;;5060223;28;20438;-76
2022/03/15 05:54:51;;;;;;;28.37;11.87;;;;;;;;;;5062403;28;20334;-76
2022/03/15 05:57:24;;;;;;;26.10;11.73;;;;;;;;;;5060572;28;20073;-76
2022/03/15 05:59:51;;;;;;;24.70;11.10;;;;;;;;;;5062573;28;20132;-76
2022/03/15 06:02:17;;;;;;;24.97;11.47;;;;;;;;;;5061696;28;20068;-76
2022/03/15 06:04:44;;;;;;;20.60;11.48;;;;;;;;;;5061439;28;20053;-76
2022/03/15 06:07:11;;;;;;;20.13;9.55;;;;;;;;;;5063127;28;20144;-76
2022/03/15 06:09:37;;;;;;;24.70;12.47;;;;;;;;;;5065831;28;20056;-76
2022/03/15 06:12:10;;;;;;;25.10;12.40;;;;;;;;;;5061890;28;20076;-76
2022/03/15 06:14:37;;;;;;;25.03;11.77;;;;;;;;;;5061779;28;20115;-75
2022/03/15 06:17:04;;;;;;;26.40;11.87;;;;;;;;;;5062988;28;20127;-76
2022/03/15 06:19:31;;;;;;;22.73;11.03;;;;;;;;;;5064085;28;20053;-76
2022/03/15 06:21:58;;;;;;;26.25;12.43;;;;;;;;;;5061877;28;20076;-76
2022/03/15 06:24:26;;;;;;;24.90;12.30;;;;;;;;;;5059281;28;20057;-76
2022/03/15 06:26:53;;;;;;;23.90;12.43;;;;;;;;;;5061704;28;20053;-76
2022/03/15 06:29:19;;;;;;;16.10;8.60;;;;;;;;;;5058348;28;20131;-77
2022/03/15 06:31:46;;;;;;;23.42;10.98;;;;;;;;;;5060776;28;20310;-76
2022/03/15 06:34:35;;;;;;;22.60;11.23;;;;;;;;;;5065588;28;20045;-76
2022/03/15 06:37:02;;;;;;;22.88;11.07;;;;;;;;;;5060187;28;20571;-76
2022/03/15 06:39:28;;;;;;;17.63;8.15;;;;;;;;;;5059664;28;20127;-77
2022/03/15 06:41:56;;;;;;;23.50;11.73;;;;;;;;;;5060811;28;20059;-76
2022/03/15 06:44:22;;;;;;;20.33;8.68;;;;;;;;;;5060453;28;20051;-77
2022/03/15 06:46:56;;;;;;;25.63;11.85;;;;;;;;;;5058025;28;20084;-77
2022/03/15 06:49:23;;;;;;;23.13;12.93;;;;;;;;;;5062660;28;20094;-77
2022/03/15 06:51:50;;;;;;;23.15;11.40;;;;;;;;;;5059576;28;20052;-76
2022/03/15 06:54:17;;;;;;;13.73;7.67;;;;;;;;;;5059822;28;20079;-77
2022/03/15 06:56:43;;;;;;;30.92;11.52;;;;;;;;;;5057543;28;20084;-74
2022/03/15 06:59:09;;;;;;;25.40;11.50;;;;;;;;;;5064985;28;20132;-74
2022/03/15 07:01:36;;;;;;;25.37;12.10;;;;;;;;;;5060413;28;20088;-74
2022/03/15 07:04:03;;;;;;;20.30;9.63;;;;;;;;;;5060806;28;20049;-74
2022/03/15 07:06:30;;;;;;;22.23;11.60;;;;;;;;;;5063444;28;20134;-73
2022/03/15 07:08:59;;;;;;;31.20;11.30;;;;;;;;;;5059179;28;20140;-73
2022/03/15 07:11:26;;;;;;;24.58;12.05;;;;;;;;;;5062851;28;20080;-74
2022/03/15 07:13:52;;;;;;;22.37;9.47;;;;;;;;;;5057077;28;20770;-74
2022/03/15 07:16:19;;;;;;;25.90;11.82;;;;;;;;;;5059714;28;20370;-74
2022/03/15 07:18:46;;;;;;;23.50;11.57;;;;;;;;;;5056258;28;20467;-73
2022/03/15 07:21:12;;;;;;;23.95;11.88;;;;;;;;;;5059055;28;20379;-74
2022/03/15 07:23:46;;;;;;;23.13;12.15;;;;;;;;;;5058996;28;20127;-73
2022/03/15 07:26:16;;;;;;;26.27;11.60;;;;;;;;;;5059912;28;20080;-73
2022/03/15 07:28:42;;;;;;;21.17;11.50;;;;;;;;;;5056359;28;20049;-73
2022/03/15 07:31:12;;;;;;;26.73;11.30;;;;;;;;;;5062972;28;20055;-73
2022/03/15 07:33:45;;;;;;;34.10;16.92;;;;;;;;;;5061764;28;20112;-73
2022/03/15 07:36:12;;;;;;;28.87;15.47;;;;;;;;;;5056270;28;20072;-73
2022/03/15 07:38:38;;;;;;;32.80;14.05;;;;;;;;;;5057525;28;20128;-73
2022/03/15 07:41:11;;;;;;;27.65;14.57;;;;;;;;;;5058517;28;20127;-73
2022/03/15 07:43:38;;;;;;;28.58;13.35;;;;;;;;;;5060807;28;20155;-72
2022/03/15 07:46:05;;;;;;;35.10;14.33;;;;;;;;;;5063591;28;20124;-73
2022/03/15 07:48:32;;;;;;;33.03;14.75;;;;;;;;;;5059580;28;20289;-72
2022/03/15 07:50:58;;;;;;;33.10;15.38;;;;;;;;;;5059176;28;20610;-72
2022/03/15 07:53:25;;;;;;;33.80;15.18;;;;;;;;;;5058698;28;20071;-72
2022/03/15 07:56:00;;;;;;;32.40;15.07;;;;;;;;;;5061066;28;20535;-72
2022/03/15 07:58:27;;;;;;;32.80;14.80;;;;;;;;;;5058535;28;20048;-71
2022/03/15 08:00:58;;;;;;;32.22;14.85;;;;;;;;;;5060119;28;20135;-71
2022/03/15 08:03:25;;;;;;;30.15;14.50;;;;;;;;;;5057772;28;20571;-72
2022/03/15 08:05:52;;;;;;;32.57;13.87;;;;;;;;;;5056495;28;20102;-71
2022/03/15 08:08:19;;;;;;;29.50;15.65;;;;;;;;;;5058276;28;20083;-71
2022/03/15 08:10:52;;;;;;;28.98;15.50;;;;;;;;;;5059346;28;20041;-71
2022/03/15 08:13:19;;;;;;;33.70;15.43;;;;;;;;;;5060733;28;20498;-71
2022/03/15 08:15:45;;;;;;;31.50;17.15;;;;;;;;;;5060863;28;20136;-70
2022/03/15 08:18:16;;;;;;;31.30;15.93;;;;;;;;;;5061134;28;20159;-71
2022/03/15 08:20:42;;;;;;;30.10;15.13;;;;;;;;;;5055735;28;20084;-70
2022/03/15 08:23:12;;;;;;;30.27;16.17;;;;;;;;;;5059462;28;20629;-71
2022/03/15 08:25:39;;;;;;;33.60;16.17;;;;;;;;;;5060128;28;20114;-70
2022/03/15 08:28:05;;;;;;;31.17;15.98;;;;;;;;;;5059945;28;20132;-70
2022/03/15 08:30:32;;;;;;;30.65;15.18;;;;;;;;;;5055139;28;20053;-70
2022/03/15 08:32:59;;;;;;;29.17;14.88;;;;;;;;;;5058190;28;20135;-70
2022/03/15 08:35:25;;;;;;;27.38;15.50;;;;;;;;;;5056861;28;20144;-70
2022/03/15 08:37:51;;;;;;;25.95;14.50;;;;;;;;;;5055706;28;20083;-70
2022/03/15 08:40:19;;;;;;;27.17;14.87;;;;;;;;;;5058385;28;20056;-70
2022/03/15 08:42:46;;;;;;;29.20;15.70;;;;;;;;;;5057784;28;20323;-70
2022/03/15 08:45:12;;;;;;;29.50;15.70;;;;;;;;;;5060604;28;20147;-70
2022/03/15 08:47:45;;;;;;;31.88;16.08;;;;;;;;;;5056117;28;20151;-69
2022/03/15 08:50:22;;;;;;;36.05;16.17;;;;;;;;;;5059493;28;20048;-69
2022/03/15 08:52:51;;;;;;;28.38;15.27;;;;;;;;;;5054784;28;20153;-69
2022/03/15 08:55:18;;;;;;;27.10;13.40;;;;;;;;;;5057053;28;20155;-69
2022/03/15 08:57:44;;;;;;;34.58;16.23;;;;;;;;;;5058103;28;20080;-69
2022/03/15 09:00:17;;;;;;;28.35;15.43;;;;;;;;;;5061106;28;20076;-69
2022/03/15 09:02:44;;;;;;;28.80;16.23;;;;;;;;;;5058891;28;20082;-69
2022/03/15 09:05:11;;;;;;;31.13;15.40;;;;;;;;;;5060338;28;20052;-69
2022/03/15 09:07:39;;;;;;;31.30;15.40;;;;;;;;;;5056435;28;20083;-69
2022/03/15 09:10:06;;;;;;;36.83;17.65;;;;;;;;;;5060636;28;20133;-69
2022/03/15 09:12:32;;;;;;;30.50;16.97;;;;;;;;;;5058049;28;20123;-69
2022/03/15 09:14:59;;;;;;;32.30;15.75;;;;;;;;;;5058425;28;20143;-69
2022/03/15 09:17:26;;;;;;;37.90;16.92;;;;;;;;;;5060434;28;20118;-69
2022/03/15 09:20:12;;;;;;;30.77;15.90;;;;;;;;;;5055048;28;20805;-69
2022/03/15 09:22:46;;;;;;;28.42;15.40;;;;;;;;;;5057418;28;20048;-69
2022/03/15 09:25:13;;;;;;;26.85;15.18;;;;;;;;;;5056943;28;20084;-69
2022/03/15 09:27:41;;;;;;;33.45;16.20;;;;;;;;;;5057014;28;20140;-68
2022/03/15 09:30:09;;;;;;;31.50;17.02;;;;;;;;;;5059818;28;20139;-69
2022/03/15 09:32:44;;;;;;;31.77;16.40;;;;;;;;;;5058560;28;20131;-69
2022/03/15 09:35:11;;;;;;;32.45;16.92;;;;;;;;;;5056225;28;20076;-69
2022/03/15 09:37:38;;;;;;;31.73;16.97;;;;;;;;;;5060623;28;20079;-68
2022/03/15 09:40:08;;;;;;;30.30;17.35;;;;;;;;;;5056855;28;20056;-68
2022/03/15 09:42:35;;;;;;;32.28;17.13;;;;;;;;;;5060540;28;20079;-68
2022/03/15 09:45:02;;;;;;;30.65;18.27;;;;;;;;;;5059169;28;20087;-69
2022/03/15 09:47:34;;;;;;;29.42;16.75;;;;;;;;;;5057870;28;20076;-68
2022/03/15 09:50:03;;;;;;;33.85;17.70;;;;;;;;;;5054519;28;20057;-69
2022/03/15 09:52:29;;;;;;;35.72;18.00;;;;;;;;;;5055882;28;20099;-68
2022/03/15 09:54:56;;;;;;;34.25;18.10;;;;;;;;;;5058908;28;20140;-69
2022/03/15 09:57:23;;;;;;;33.83;18.05;;;;;;;;;;5062520;28;20160;-68
2022/03/15 09:59:50;;;;;;;28.10;16.40;;;;;;;;;;5057898;28;20482;-69
2022/03/15 10:02:17;;;;;;;33.75;18.10;;;;;;;;;;5064508;28;20081;-68
2022/03/15 10:04:44;;;;;;;32.05;17.98;;;;;;;;;;5064528;28;20060;-68
2022/03/15 10:07:11;;;;;;;31.67;17.45;;;;;;;;;;5067728;28;20114;-68
2022/03/15 10:09:44;;;;;;;34.33;18.30;;;;;;;;;;5060793;28;21160;-69
2022/03/15 10:12:11;;;;;;;32.45;17.20;;;;;;;;;;5061430;28;20143;-66
2022/03/15 10:14:44;;;;;;;33.15;19.08;;;;;;;;;;5060757;28;20143;-66
2022/03/15 10:17:14;;;;;;;30.00;18.55;;;;;;;;;;5062752;28;20051;-66
2022/03/15 10:19:51;;;;;;;32.17;16.45;;;;;;;;;;5060550;28;20090;-67
2022/03/15 10:22:19;;;;;;;32.80;17.63;;;;;;;;;;5059460;28;20531;-66
2022/03/15 10:24:46;;;;;;;31.00;18.30;;;;;;;;;;5055997;28;20088;-66
2022/03/15 10:27:14;;;;;;;27.92;17.02;;;;;;;;;;5060793;28;20080;-66
2022/03/15 10:29:43;;;;;;;32.47;17.60;;;;;;;;;;5059500;28;20132;-66
2022/03/15 10:32:10;;;;;;;30.75;16.80;;;;;;;;;;5061884;28;20125;-66
2022/03/15 10:34:37;;;;;;;38.50;18.10;;;;;;;;;;5061199;28;20106;-66
2022/03/15 10:37:11;;;;;;;33.60;17.10;;;;;;;;;;5066674;28;20107;-65
2022/03/15 10:39:38;;;;;;;32.65;17.83;;;;;;;;;;5063217;28;20098;-66
2022/03/15 10:42:05;;;;;;;29.27;17.60;;;;;;;;;;5061947;28;20048;-66
2022/03/15 10:44:36;;;;;;;29.80;17.33;;;;;;;;;;5058389;28;20087;-66
2022/03/15 10:47:12;;;;;;;27.33;16.42;;;;;;;;;;5062122;28;20099;-66
2022/03/15 10:49:54;;;;;;;31.35;16.80;;;;;;;;;;5056312;28;20052;-66
2022/03/15 10:52:34;;;;;;;35.17;17.70;;;;;;;;;;5058427;28;20132;-66
2022/03/15 10:55:11;;;;;;;31.20;17.15;;;;;;;;;;5059400;28;20131;-66
2022/03/15 10:57:44;;;;;;;34.05;18.33;;;;;;;;;;5058848;28;20471;-66
2022/03/15 11:00:17;;;;;;;31.70;17.13;;;;;;;;;;5058541;28;20079;-65
2022/03/15 11:02:45;;;;;;;31.08;17.35;;;;;;;;;;5057602;28;20102;-65
2022/03/15 11:05:12;;;;;;;31.08;16.85;;;;;;;;;;5060185;28;20471;-66
2022/03/15 11:07:39;;;;;;;31.58;16.73;;;;;;;;;;5056592;28;20548;-65
2022/03/15 11:10:12;;;;;;;32.03;17.80;;;;;;;;;;5059745;28;20136;-66
2022/03/15 11:12:43;;;;;;;28.92;17.45;;;;;;;;;;5060944;28;20053;-66
2022/03/15 11:15:12;;;;;;;28.83;17.15;;;;;;;;;;5059941;28;20056;-66
2022/03/15 11:17:38;;;;;;;31.75;17.85;;;;;;;;;;5058915;28;20076;-66
2022/03/15 11:20:07;;;;;;;32.22;18.08;;;;;;;;;;5058701;28;20125;-66
2022/03/15 11:22:41;;;;;;;31.27;16.85;;;;;;;;;;5056879;28;20511;-65
2022/03/15 11:25:11;;;;;;;32.45;17.20;;;;;;;;;;5061017;28;20139;-66
2022/03/15 11:27:40;;;;;;;28.95;17.45;;;;;;;;;;5057577;28;20080;-66
2022/03/15 11:30:12;;;;;;;28.88;16.95;;;;;;;;;;5062533;28;20079;-65
2022/03/15 11:32:41;;;;;;;32.40;17.73;;;;;;;;;;5058118;28;20091;-66
2022/03/15 11:35:08;;;;;;;31.65;17.13;;;;;;;;;;5056377;28;20084;-66
2022/03/15 11:37:36;;;;;;;30.40;16.88;;;;;;;;;;5061331;28;20076;-66
2022/03/15 11:40:11;;;;;;;29.60;17.08;;;;;;;;;;5055876;28;20467;-66
2022/03/15 11:42:39;;;;;;;;;;;;;;;;;;5059622;28;20071;-66
2022/03/15 11:45:25;;;;;;;31.60;15.95;;;;;;;;;;5059781;28;19956;-66
2022/03/15 11:48:09;;;;;;;29.48;17.73;;;;;;;;;;5062736;28;20492;-66
2022/03/15 11:50:38;;;;;;;30.35;15.48;;;;;;;;;;5059078;28;20048;-66
2022/03/15 11:53:22;;;;;;;26.58;16.88;;;;;;;;;;5059135;28;20163;-66
2022/03/15 11:55:53;;;;;;;32.60;17.20;;;;;;;;;;5059036;28;20415;-66
2022/03/15 11:58:28;;;;;;;28.98;15.50;;;;;;;;;;5057029;28;20110;-66
2022/03/15 12:00:57;;;;;;;26.45;15.90;;;;;;;;;;5061799;28;20144;-65
2022/03/15 12:03:24;;;;;;;31.70;17.48;;;;;;;;;;5059852;28;20049;-65
2022/03/15 12:05:53;;;;;;;31.13;17.08;;;;;;;;;;5058586;28;20144;-66
2022/03/15 12:08:22;;;;;;;27.50;16.73;;;;;;;;;;5056948;28;20091;-66
2022/03/15 12:10:51;;;;;;;28.02;17.30;;;;;;;;;;5058816;28;20143;-65
2022/03/15 12:13:37;;;;;;;29.45;17.58;;;;;;;;;;5058550;28;20057;-65
2022/03/15 12:16:15;;;;;;;26.85;16.48;;;;;;;;;;5059451;28;20139;-66
2022/03/15 12:18:54;;;;;;;28.25;16.58;;;;;;;;;;5060462;28;20049;-66
2022/03/15 12:21:27;;;;;;;28.88;17.23;;;;;;;;;;5059653;28;20192;-66
2022/03/15 12:23:57;;;;;;;33.45;17.42;;;;;;;;;;5057722;28;20080;-66
2022/03/15 12:26:27;;;;;;;26.40;15.95;;;;;;;;;;5057103;28;20076;-66
2022/03/15 12:29:04;;;;;;;27.10;16.38;;;;;;;;;;5058970;28;20549;-66
2022/03/15 12:31:33;;;;;;;26.63;16.08;;;;;;;;;;5056737;28;20087;-65
2022/03/15 12:34:08;;;;;;;32.03;17.67;;;;;;;;;;5054881;28;20098;-66
2022/03/15 12:36:58;;;;;;;32.30;17.50;;;;;;;;;;5058218;28;20144;-66
2022/03/15 12:39:26;;;;;;;31.23;17.70;;;;;;;;;;5058519;28;20049;-66
2022/03/15 12:42:03;;;;;;;35.47;17.38;;;;;;;;;;5061036;28;20496;-66
2022/03/15 12:44:45;;;;;;;30.92;18.25;;;;;;;;;;5059492;28;20176;-66
2022/03/15 12:47:18;;;;;;;28.77;17.45;;;;;;;;;;5056466;28;20504;-66
2022/03/15 12:50:04;;;;;;;31.30;16.75;;;;;;;;;;5058278;28;20091;-66
2022/03/15 12:52:41;;;;;;;34.33;18.75;;;;;;;;;;5060510;28;20072;-66
2022/03/15 12:55:15;;;;;;;29.67;18.08;;;;;;;;;;5059535;28;20084;-66
2022/03/15 12:57:44;;;;;;;34.15;17.42;;;;;;;;;;5056359;28;20072;-65
2022/03/15 13:00:11;;;;;;;32.10;17.92;;;;;;;;;;5058142;28;20492;-66
2022/03/15 13:02:38;;;;;;;35.60;16.00;;;;;;;;;;5059133;28;20132;-66
2022/03/15 13:05:10;;;;;;;31.75;18.10;;;;;;;;;;5057489;28;20052;-66
2022/03/15 13:07:37;;;;;;;32.65;17.25;;;;;;;;;;5059194;28;20136;-66
2022/03/15 13:10:03;;;;;;;27.98;17.50;;;;;;;;;;5058279;28;20106;-66
2022/03/15 13:12:32;;;;;;;37.22;18.45;;;;;;;;;;5055827;28;20048;-66
2022/03/15 13:14:59;;;;;;;30.48;17.77;;;;;;;;;;5058139;28;20056;-66
2022/03/15 13:17:30;;;;;;;31.67;16.92;;;;;;;;;;5056854;28;21081;-66
2022/03/15 13:20:09;;;;;;;32.58;18.08;;;;;;;;;;5055134;28;20053;-67
2022/03/15 13:22:36;;;;;;;29.23;17.15;;;;;;;;;;5059551;28;20480;-67
2022/03/15 13:25:04;;;;;;;34.67;16.83;;;;;;;;;;5037595;28;20517;-67
2022/03/15 13:27:38;;;;;;;34.33;17.65;;;;;;;;;;5035855;28;20135;-67
2022/03/15 13:30:08;;;;;;;30.85;16.23;;;;;;;;;;5039716;28;20049;-67
2022/03/15 13:32:35;;;;;;;29.50;17.13;;;;;;;;;;5036941;28;20136;-67
2022/03/15 13:35:03;;;;;;;30.85;16.95;;;;;;;;;;5040678;28;20081;-67
2022/03/15 13:37:29;;;;;;;28.25;17.05;;;;;;;;;;5042650;28;20543;-67
2022/03/15 13:40:04;;;;;;;29.98;16.55;;;;;;;;;;5042790;28;20129;-67
2022/03/15 13:42:31;;;;;;;29.13;15.43;;;;;;;;;;5039578;28;20053;-68
2022/03/15 13:44:58;;;;;;;28.38;16.95;;;;;;;;;;5041861;28;20069;-67
2022/03/15 13:47:27;;;;;;;27.48;16.48;;;;;;;;;;5041755;28;20076;-68
2022/03/15 13:49:58;;;;;;;29.08;15.63;;;;;;;;;;5042265;28;20061;-68
2022/03/15 13:52:24;;;;;;;30.65;16.45;;;;;;;;;;5041509;28;20081;-68
2022/03/15 13:54:59;;;;;;;32.35;16.80;;;;;;;;;;5042261;28;20107;-67
2022/03/15 13:57:28;;;;;;;30.77;16.23;;;;;;;;;;5041666;28;20056;-67
2022/03/15 14:00:28;;;;;;;23.48;15.10;;;;;;;;;;5042214;28;20084;-67
2022/03/15 14:03:05;;;;;;;28.55;16.67;;;;;;;;;;5034105;28;20522;-68
2022/03/15 14:05:33;;;;;;;27.58;16.65;;;;;;;;;;5040837;28;20052;-68
2022/03/15 14:08:01;;;;;;;27.08;16.30;;;;;;;;;;5044275;28;20114;-67
2022/03/15 14:10:28;;;;;;;26.77;16.27;;;;;;;;;;5041800;28;20107;-67
2022/03/15 14:12:56;;;;;;;35.92;17.52;;;;;;;;;;5038655;28;20092;-67
2022/03/15 14:15:26;;;;;;;27.52;16.40;;;;;;;;;;5038921;28;20608;-67
2022/03/15 14:17:58;;;;;;;27.08;17.17;;;;;;;;;;5043249;28;20046;-67
2022/03/15 14:20:33;;;;;;;30.67;17.85;;;;;;;;;;5042514;28;20057;-67
2022/03/15 14:23:08;;;;;;;26.05;16.58;;;;;;;;;;5040837;28;20133;-67
2022/03/15 14:25:40;;;;;;;28.77;16.70;;;;;;;;;;5039797;28;20037;-67
2022/03/15 14:28:11;;;;;;;25.40;16.23;;;;;;;;;;5045552;28;20077;-67
2022/03/15 14:30:38;;;;;;;32.45;16.73;;;;;;;;;;5040388;28;20128;-67
2022/03/15 14:33:12;;;;;;;24.40;15.00;;;;;;;;;;5024472;28;20128;-68
2022/03/15 14:35:40;;;;;;;26.52;15.88;;;;;;;;;;5042183;28;20247;-67
2022/03/15 14:38:07;;;;;;;;;;;;;;;;;;5043699;28;20563;-67